createdAt,value
2018-08-22T00:00:45.769Z,5.87
2018-08-22T00:03:14.045Z,5.23
2018-08-22T00:05:42.245Z,5.87
2018-08-22T00:08:10.426Z,5.50
2018-08-22T00:10:38.663Z,5.07
2018-08-22T00:13:06.886Z,4.67
2018-08-22T00:15:35.042Z,5.17
2018-08-22T00:18:03.206Z,5.30
2018-08-22T00:20:31.387Z,5.23
2018-08-22T00:22:59.657Z,5.47
2018-08-22T00:25:27.910Z,5.20
2018-08-22T00:27:55.981Z,5.13
2018-08-22T00:30:24.164Z,5.20
2018-08-22T00:32:52.415Z,5.30
2018-08-22T00:35:20.655Z,5.83
2018-08-22T00:37:48.837Z,5.57
2018-08-22T00:40:17.011Z,5.90
2018-08-22T00:42:45.225Z,6.23
2018-08-22T00:45:13.394Z,5.40
2018-08-22T00:47:41.671Z,5.63
2018-08-22T00:50:09.910Z,5.70
2018-08-22T00:52:38.226Z,5.33
2018-08-22T00:55:06.426Z,5.63
2018-08-22T00:57:34.618Z,5.33
2018-08-22T01:00:02.930Z,5.17
2018-08-22T01:02:31.666Z,5.77
2018-08-22T01:04:59.965Z,5.57
2018-08-22T01:07:28.195Z,5.43
2018-08-22T01:09:56.750Z,5.50
2018-08-22T01:12:24.913Z,5.67
2018-08-22T01:14:53.239Z,5.70
2018-08-22T01:17:21.726Z,5.63
2018-08-22T01:19:50.254Z,5.50
2018-08-22T01:22:24.888Z,5.37
2018-08-22T01:24:53.069Z,5.83
2018-08-22T01:27:21.257Z,6.07
2018-08-22T01:29:51.116Z,5.60
2018-08-22T01:32:19.463Z,5.80
2018-08-22T01:34:47.638Z,5.57
2018-08-22T01:37:16.042Z,6.00
2018-08-22T01:39:44.357Z,6.10
2018-08-22T01:42:12.558Z,5.87
2018-08-22T01:44:40.729Z,5.50
2018-08-22T01:47:09.427Z,5.67
2018-08-22T01:49:37.985Z,5.33
2018-08-22T01:52:06.191Z,5.60
2018-08-22T01:54:34.398Z,5.50
2018-08-22T01:57:02.560Z,5.20
2018-08-22T01:59:30.909Z,5.80
2018-08-22T02:02:05.706Z,4.90
2018-08-22T02:04:33.906Z,5.73
2018-08-22T02:07:02.091Z,6.03
2018-08-22T02:09:30.434Z,5.40
2018-08-22T02:11:58.701Z,5.47
2018-08-22T02:14:26.905Z,6.13
2018-08-22T02:16:55.097Z,6.10
2018-08-22T02:19:23.384Z,5.13
2018-08-22T02:21:51.624Z,5.90
2018-08-22T02:24:19.833Z,5.40
2018-08-22T02:26:48.041Z,5.67
2018-08-22T02:29:16.400Z,5.10
2018-08-22T02:31:44.727Z,5.43
2018-08-22T02:34:12.926Z,5.83
2018-08-22T02:36:41.507Z,5.97
2018-08-22T02:39:10.337Z,5.80
2018-08-22T02:41:38.680Z,6.03
2018-08-22T02:44:06.977Z,5.33
2018-08-22T02:46:35.183Z,6.40
2018-08-22T02:49:03.732Z,5.47
2018-08-22T02:51:31.913Z,5.97
2018-08-22T02:54:00.578Z,6.13
2018-08-22T02:56:28.815Z,5.40
2018-08-22T02:58:56.999Z,5.67
2018-08-22T03:01:25.183Z,5.63
2018-08-22T03:03:53.455Z,6.13
2018-08-22T03:06:21.717Z,6.00
2018-08-22T03:08:49.942Z,5.90
2018-08-22T03:11:18.150Z,6.10
2018-08-22T03:13:46.450Z,5.63
2018-08-22T03:16:14.653Z,6.27
2018-08-22T03:18:42.864Z,5.77
2018-08-22T03:21:11.073Z,6.00
2018-08-22T03:23:39.289Z,6.07
2018-08-22T03:26:07.606Z,5.97
2018-08-22T03:28:35.850Z,6.60
2018-08-22T03:31:04.040Z,6.37
2018-08-22T03:33:32.259Z,6.20
2018-08-22T03:36:00.446Z,5.80
2018-08-22T03:38:28.941Z,6.07
2018-08-22T03:40:57.120Z,6.10
2018-08-22T03:43:25.350Z,5.90
2018-08-22T03:45:53.599Z,6.17
2018-08-22T03:48:21.778Z,5.57
2018-08-22T03:50:49.986Z,6.00
2018-08-22T03:53:18.199Z,6.10
2018-08-22T03:55:46.379Z,5.27
2018-08-22T03:58:14.571Z,6.30
2018-08-22T04:00:42.833Z,6.20
2018-08-22T04:03:11.141Z,5.53
2018-08-22T04:05:39.334Z,6.10
2018-08-22T04:08:07.595Z,5.70
2018-08-22T04:10:36.061Z,5.90
2018-08-22T04:13:04.401Z,6.50
2018-08-22T04:15:32.565Z,6.00
2018-08-22T04:18:00.846Z,5.93
2018-08-22T04:20:29.469Z,6.80
2018-08-22T04:22:57.670Z,5.70
2018-08-22T04:25:25.861Z,6.10
2018-08-22T04:27:54.102Z,6.23
2018-08-22T04:30:22.329Z,6.00
2018-08-22T04:32:50.497Z,6.43
2018-08-22T04:35:18.714Z,6.17
2018-08-22T04:37:46.901Z,6.97
2018-08-22T04:40:15.175Z,6.40
2018-08-22T04:42:43.349Z,6.37
2018-08-22T04:45:11.606Z,5.63
2018-08-22T04:47:39.805Z,6.03
2018-08-22T04:50:08.055Z,6.60
2018-08-22T04:52:36.263Z,6.63
2018-08-22T04:55:04.749Z,5.93
2018-08-22T04:57:32.954Z,6.77
2018-08-22T05:00:01.487Z,6.43
2018-08-22T05:02:29.775Z,6.07
2018-08-22T05:04:58.012Z,6.30
2018-08-22T05:07:27.156Z,5.90
2018-08-22T05:09:55.341Z,5.70
2018-08-22T05:12:23.637Z,5.50
2018-08-22T05:14:51.957Z,5.20
2018-08-22T05:17:20.193Z,5.20
2018-08-22T05:19:48.601Z,6.27
2018-08-22T05:22:17.402Z,5.90
2018-08-22T05:24:46.099Z,5.23
2018-08-22T05:27:14.496Z,5.73
2018-08-22T05:29:42.699Z,5.23
2018-08-22T05:32:10.898Z,5.77
2018-08-22T05:34:39.103Z,5.70
2018-08-22T05:37:07.356Z,5.53
2018-08-22T05:39:35.564Z,5.60
2018-08-22T05:42:03.766Z,5.30
2018-08-22T05:44:31.993Z,6.20
2018-08-22T05:47:00.193Z,5.23
2018-08-22T05:49:28.389Z,5.60
2018-08-22T05:51:56.608Z,5.20
2018-08-22T05:54:24.800Z,5.60
2018-08-22T05:56:53.141Z,5.07
2018-08-22T05:59:21.358Z,5.57
2018-08-22T06:01:49.792Z,5.33
2018-08-22T06:04:18.115Z,5.67
2018-08-22T06:06:46.797Z,5.73
2018-08-22T06:09:15.081Z,5.00
2018-08-22T06:11:44.249Z,4.93
2018-08-22T06:14:12.806Z,4.90
2018-08-22T06:16:41.018Z,4.90
2018-08-22T06:19:09.381Z,5.27
2018-08-22T06:21:37.578Z,5.40
2018-08-22T06:24:05.817Z,5.13
2018-08-22T06:26:34.023Z,5.50
2018-08-22T06:29:02.216Z,5.43
2018-08-22T06:31:30.412Z,4.63
2018-08-22T06:33:58.590Z,5.23
2018-08-22T06:36:26.796Z,4.60
2018-08-22T06:38:54.992Z,4.53
2018-08-22T06:41:23.505Z,5.37
2018-08-22T06:43:51.723Z,4.93
2018-08-22T06:46:19.930Z,5.50
2018-08-22T06:48:48.120Z,4.93
2018-08-22T06:51:18.987Z,5.07
2018-08-22T06:53:47.166Z,5.07
2018-08-22T06:56:18.435Z,5.07
2018-08-22T06:58:46.666Z,4.77
2018-08-22T07:01:15.083Z,4.80
2018-08-22T07:03:43.626Z,5.03
2018-08-22T07:06:11.833Z,5.23
2018-08-22T07:08:40.009Z,4.57
2018-08-22T07:11:08.382Z,5.03
2018-08-22T07:13:36.670Z,5.10
2018-08-22T07:16:04.883Z,4.80
2018-08-22T07:18:33.362Z,4.80
2018-08-22T07:21:01.681Z,4.33
2018-08-22T07:23:30.055Z,4.47
2018-08-22T07:25:58.243Z,4.37
2018-08-22T07:28:26.462Z,4.77
2018-08-22T07:30:54.743Z,4.07
2018-08-22T07:33:22.961Z,4.40
2018-08-22T07:35:51.210Z,3.92
2018-08-22T07:38:19.429Z,3.87
2018-08-22T07:40:47.626Z,4.20
2018-08-22T07:43:16.020Z,4.28
2018-08-22T07:45:44.261Z,4.28
2018-08-22T07:48:12.454Z,4.17
2018-08-22T07:50:40.702Z,4.40
2018-08-22T07:53:09.014Z,4.20
2018-08-22T07:55:39.997Z,4.12
2018-08-22T07:58:08.318Z,3.90
2018-08-22T08:00:36.767Z,4.35
2018-08-22T08:03:04.966Z,4.42
2018-08-22T08:05:33.299Z,4.05
2018-08-22T08:08:01.594Z,4.42
2018-08-22T08:10:30.971Z,4.33
2018-08-22T08:12:59.254Z,4.05
2018-08-22T08:15:27.443Z,3.85
2018-08-22T08:17:55.826Z,3.87
2018-08-22T08:20:24.358Z,3.95
2018-08-22T08:22:52.547Z,4.50
2018-08-22T08:25:20.938Z,3.87
2018-08-22T08:27:49.113Z,4.33
2018-08-22T08:30:17.669Z,4.08
2018-08-22T08:32:46.039Z,3.80
2018-08-22T08:35:14.553Z,4.50
2018-08-22T08:37:42.707Z,4.60
2018-08-22T08:40:10.886Z,4.12
2018-08-22T08:42:40.092Z,4.45
2018-08-22T08:45:09.645Z,4.85
2018-08-22T08:47:37.849Z,4.53
2018-08-22T08:50:06.055Z,4.45
2018-08-22T08:52:35.203Z,4.40
2018-08-22T08:55:03.384Z,4.15
2018-08-22T08:57:31.762Z,3.65
2018-08-22T09:00:00.389Z,4.35
2018-08-22T09:02:28.612Z,4.22
2018-08-22T09:04:56.874Z,4.28
2018-08-22T09:07:25.082Z,4.42
2018-08-22T09:09:53.648Z,4.00
2018-08-22T09:12:21.949Z,3.90
2018-08-22T09:14:50.129Z,3.42
2018-08-22T09:17:18.349Z,4.65
2018-08-22T09:22:22.690Z,4.87
2018-08-22T09:24:50.924Z,4.37
2018-08-22T09:27:19.158Z,4.15
2018-08-22T09:29:47.357Z,3.75
2018-08-22T09:32:15.596Z,4.08
2018-08-22T09:34:43.807Z,4.35
2018-08-22T09:37:11.983Z,4.35
2018-08-22T09:39:40.211Z,4.47
2018-08-22T09:42:08.514Z,4.62
2018-08-22T09:44:36.874Z,4.62
2018-08-22T09:47:05.082Z,4.62
2018-08-22T09:49:33.272Z,4.30
2018-08-22T09:52:01.631Z,4.20
2018-08-22T09:54:30.076Z,4.25
2018-08-22T09:56:58.235Z,4.22
2018-08-22T09:59:26.498Z,4.70
2018-08-22T10:01:54.705Z,4.70
2018-08-22T10:04:23.063Z,4.10
2018-08-22T10:06:51.477Z,4.00
2018-08-22T10:09:21.974Z,3.90
2018-08-22T10:11:50.187Z,4.03
2018-08-22T10:14:18.374Z,4.72
2018-08-22T10:16:46.770Z,4.22
2018-08-22T10:19:15.094Z,4.17
2018-08-22T10:21:43.336Z,4.60
2018-08-22T10:24:11.657Z,4.55
2018-08-22T10:26:39.869Z,4.22
2018-08-22T10:29:08.068Z,4.55
2018-08-22T10:31:36.696Z,4.03
2018-08-22T10:34:05.002Z,4.10
2018-08-22T10:36:33.233Z,4.17
2018-08-22T10:39:01.592Z,4.03
2018-08-22T10:41:29.860Z,4.40
2018-08-22T10:43:58.114Z,4.33
2018-08-22T10:46:26.334Z,4.30
2018-08-22T10:48:54.557Z,4.62
2018-08-22T10:51:23.061Z,4.72
2018-08-22T10:53:51.337Z,4.58
2018-08-22T10:56:19.545Z,4.72
2018-08-22T10:58:47.735Z,4.35
2018-08-22T11:01:16.090Z,4.70
2018-08-22T11:03:44.349Z,4.37
2018-08-22T11:06:12.591Z,3.95
2018-08-22T11:08:40.846Z,4.80
2018-08-22T11:11:09.474Z,4.83
2018-08-22T11:13:37.758Z,4.45
2018-08-22T11:16:06.038Z,4.95
2018-08-22T11:18:34.182Z,4.47
2018-08-22T11:21:13.736Z,4.47
2018-08-22T11:23:53.592Z,4.50
2018-08-22T11:26:33.220Z,4.83
2018-08-22T11:29:13.145Z,4.67
2018-08-22T11:31:53.625Z,4.47
2018-08-22T11:34:33.508Z,4.33
2018-08-22T11:37:06.558Z,4.62
2018-08-22T11:39:34.863Z,4.85
2018-08-22T11:42:03.559Z,4.47
2018-08-22T11:44:31.798Z,5.20
2018-08-22T11:47:00.604Z,4.95
2018-08-22T11:49:29.533Z,4.53
2018-08-22T11:51:58.519Z,5.10
2018-08-22T11:54:26.794Z,4.05
2018-08-22T11:56:55.051Z,4.35
2018-08-22T11:59:23.886Z,4.58
2018-08-22T12:01:52.257Z,4.50
2018-08-22T12:04:20.794Z,4.55
2018-08-22T12:06:49.440Z,4.70
2018-08-22T12:09:17.849Z,4.55
2018-08-22T12:11:46.090Z,4.33
2018-08-22T12:14:14.557Z,4.60
2018-08-22T12:16:42.930Z,4.45
2018-08-22T12:19:11.474Z,4.12
2018-08-22T12:21:40.467Z,4.55
2018-08-22T12:24:09.638Z,3.75
2018-08-22T12:26:38.250Z,4.15
2018-08-22T12:29:09.609Z,4.25
2018-08-22T12:31:37.914Z,4.10
2018-08-22T12:34:06.673Z,4.20
2018-08-22T12:36:35.048Z,4.30
2018-08-22T12:39:03.355Z,3.95
2018-08-22T12:41:31.648Z,4.15
2018-08-22T12:44:00.210Z,4.58
2018-08-22T12:46:28.506Z,4.72
2018-08-22T12:48:56.760Z,4.12
2018-08-22T12:51:25.652Z,4.40
2018-08-22T12:53:54.533Z,4.70
2018-08-22T12:56:23.370Z,4.87
2018-08-22T12:58:51.618Z,4.62
2018-08-22T13:01:19.792Z,4.40
2018-08-22T13:03:48.034Z,3.98
2018-08-22T13:06:16.742Z,5.00
2018-08-22T13:08:44.986Z,4.78
2018-08-22T13:11:13.273Z,5.12
2018-08-22T13:13:41.588Z,5.20
2018-08-22T13:16:09.873Z,5.35
2018-08-22T13:18:38.241Z,4.40
2018-08-22T13:21:06.548Z,4.62
2018-08-22T13:23:34.794Z,4.25
2018-08-22T13:26:03.020Z,4.50
2018-08-22T13:28:31.448Z,4.62
2018-08-22T13:30:59.899Z,4.85
2018-08-22T13:33:28.097Z,4.75
2018-08-22T13:35:56.327Z,4.83
2018-08-22T13:38:24.614Z,4.80
2018-08-22T13:40:52.875Z,4.60
2018-08-22T13:43:21.089Z,4.62
2018-08-22T13:45:49.386Z,4.45
2018-08-22T13:48:17.606Z,4.22
2018-08-22T13:50:45.906Z,4.70
2018-08-22T13:53:14.064Z,4.85
2018-08-22T13:55:42.290Z,4.30
2018-08-22T13:58:10.535Z,4.80
2018-08-22T14:00:38.895Z,4.55
2018-08-22T14:03:07.266Z,4.55
2018-08-22T14:05:35.466Z,4.60
2018-08-22T14:08:03.686Z,4.55
2018-08-22T14:10:31.891Z,4.70
2018-08-22T14:13:00.257Z,4.72
2018-08-22T14:15:28.494Z,4.37
2018-08-22T14:17:57.086Z,4.95
2018-08-22T14:20:25.280Z,4.50
2018-08-22T14:22:53.463Z,4.50
2018-08-22T14:25:21.679Z,4.70
2018-08-22T14:27:49.948Z,4.25
2018-08-22T14:30:18.258Z,4.92
2018-08-22T14:32:46.536Z,4.60
2018-08-22T14:35:14.855Z,4.90
2018-08-22T14:37:43.067Z,4.92
2018-08-22T14:40:11.280Z,4.40
2018-08-22T14:42:39.492Z,4.67
2018-08-22T14:45:08.341Z,5.08
2018-08-22T14:47:36.669Z,4.53
2018-08-22T14:50:05.369Z,4.50
2018-08-22T14:52:33.582Z,4.42
2018-08-22T14:55:01.882Z,5.33
2018-08-22T14:57:30.175Z,4.40
2018-08-22T14:59:58.795Z,4.67
2018-08-22T15:02:28.492Z,4.65
2018-08-22T15:04:56.839Z,4.50
2018-08-22T15:07:25.025Z,4.10
2018-08-22T15:09:53.385Z,4.80
2018-08-22T15:12:21.953Z,4.47
2018-08-22T15:14:50.144Z,4.55
2018-08-22T15:17:18.389Z,5.37
2018-08-22T15:19:46.764Z,4.58
2018-08-22T15:22:15.112Z,4.55
2018-08-22T15:24:43.320Z,4.45
2018-08-22T15:27:11.535Z,5.03
2018-08-22T15:29:39.753Z,4.03
2018-08-22T15:32:07.993Z,4.40
2018-08-22T15:34:49.869Z,4.85
2018-08-22T15:37:18.084Z,4.80
2018-08-22T15:39:46.677Z,4.40
2018-08-22T15:42:15.658Z,4.90
2018-08-22T15:44:44.036Z,4.92
2018-08-22T15:47:12.842Z,4.60
2018-08-22T15:49:41.728Z,4.58
2018-08-22T15:52:09.946Z,4.67
2018-08-22T15:54:38.171Z,4.55
2018-08-22T15:57:06.381Z,4.78
2018-08-22T15:59:34.591Z,5.08
2018-08-22T16:02:02.813Z,4.60
2018-08-22T16:04:41.150Z,4.62
2018-08-22T16:07:09.393Z,4.28
2018-08-22T16:09:38.498Z,4.33
2018-08-22T16:12:06.793Z,4.20
2018-08-22T16:14:35.065Z,4.05
2018-08-22T16:17:03.254Z,4.05
2018-08-22T16:19:31.998Z,4.78
2018-08-22T16:22:00.230Z,4.83
2018-08-22T16:24:29.368Z,4.75
2018-08-22T16:26:57.613Z,4.42
2018-08-22T16:29:25.821Z,4.53
2018-08-22T16:31:55.781Z,4.62
2018-08-22T16:34:24.211Z,4.17
2018-08-22T16:36:52.501Z,4.15
2018-08-22T16:39:38.747Z,4.42
2018-08-22T16:42:07.485Z,4.67
2018-08-22T16:44:35.692Z,4.35
2018-08-22T16:47:03.973Z,4.47
2018-08-22T16:49:32.245Z,4.30
2018-08-22T16:52:00.490Z,4.28
2018-08-22T16:54:28.686Z,4.62
2018-08-22T16:56:56.934Z,4.65
2018-08-22T16:59:25.138Z,4.28
2018-08-22T17:01:53.628Z,4.67
2018-08-22T17:04:21.794Z,4.70
2018-08-22T17:09:47.765Z,4.28
2018-08-22T17:12:16.043Z,4.03
2018-08-22T17:14:44.250Z,4.35
2018-08-22T17:17:12.500Z,4.08
2018-08-22T17:19:40.714Z,3.80
2018-08-22T17:22:09.015Z,4.20
2018-08-22T17:24:37.319Z,4.00
2018-08-22T17:27:05.634Z,4.58
2018-08-22T17:29:33.915Z,4.40
2018-08-22T17:32:05.934Z,4.12
2018-08-22T17:34:34.497Z,4.47
2018-08-22T17:37:08.495Z,4.65
2018-08-22T17:39:36.694Z,4.10
2018-08-22T17:42:04.895Z,4.10
2018-08-22T17:44:33.121Z,4.75
2018-08-22T17:47:01.646Z,4.72
2018-08-22T17:49:30.237Z,4.80
2018-08-22T17:52:04.837Z,4.37
2018-08-22T17:54:33.175Z,4.60
2018-08-22T17:57:15.126Z,4.30
2018-08-22T17:59:44.355Z,4.17
2018-08-22T18:02:12.697Z,5.33
2018-08-22T18:04:53.662Z,4.60
2018-08-22T18:07:21.903Z,4.37
2018-08-22T18:09:50.623Z,4.40
2018-08-22T18:12:19.618Z,4.75
2018-08-22T18:14:47.939Z,4.35
2018-08-22T18:17:18.597Z,4.25
2018-08-22T18:19:47.037Z,4.50
2018-08-22T18:22:15.418Z,4.45
2018-08-22T18:24:49.130Z,4.60
2018-08-22T18:27:18.354Z,4.40
2018-08-22T18:29:46.981Z,3.80
2018-08-22T18:32:15.935Z,4.40
2018-08-22T18:34:56.517Z,4.47
2018-08-22T18:37:25.421Z,4.30
2018-08-22T18:40:05.149Z,4.22
2018-08-22T18:42:33.434Z,4.10
2018-08-22T18:45:01.658Z,4.87
2018-08-22T18:47:32.198Z,4.17
2018-08-22T18:50:00.521Z,4.35
2018-08-22T18:52:28.750Z,4.42
2018-08-22T18:54:56.969Z,4.45
2018-08-22T18:57:25.291Z,4.47
2018-08-22T18:59:53.530Z,4.83
2018-08-22T19:02:21.754Z,4.42
2018-08-22T19:04:49.970Z,4.55
2018-08-22T19:07:18.217Z,4.80
2018-08-22T19:09:49.510Z,4.50
2018-08-22T19:12:17.701Z,4.55
2018-08-22T19:14:47.700Z,5.08
2018-08-22T19:17:17.003Z,4.90
2018-08-22T19:19:46.508Z,4.30
2018-08-22T19:22:16.805Z,4.20
2018-08-22T19:25:00.717Z,4.33
2018-08-22T19:27:28.906Z,4.28
2018-08-22T19:29:57.112Z,4.40
2018-08-22T19:32:25.311Z,4.58
2018-08-22T19:34:56.373Z,4.58
2018-08-22T19:37:26.976Z,4.58
2018-08-22T19:40:04.285Z,4.20
2018-08-22T19:42:34.953Z,4.70
2018-08-22T19:45:05.824Z,4.58
2018-08-22T19:47:35.277Z,5.10
2018-08-22T19:50:03.810Z,4.55
2018-08-22T19:52:33.023Z,4.85
2018-08-22T19:55:03.049Z,5.03
2018-08-22T19:57:40.052Z,4.72
2018-08-22T20:00:11.366Z,5.08
2018-08-22T20:02:39.990Z,4.83
2018-08-22T20:05:10.034Z,4.55
2018-08-22T20:07:39.097Z,4.33
2018-08-22T20:10:08.423Z,4.78
2018-08-22T20:12:53.353Z,5.08
2018-08-22T20:15:22.462Z,4.60
2018-08-22T20:17:53.185Z,5.25
2018-08-22T20:20:22.094Z,4.35
2018-08-22T20:22:53.308Z,5.17
2018-08-22T20:25:21.828Z,4.37
2018-08-22T20:27:50.430Z,4.72
2018-08-22T20:30:21.758Z,4.42
2018-08-22T20:32:57.372Z,4.37
2018-08-22T20:35:37.954Z,4.40
2018-08-22T20:38:09.754Z,4.28
2018-08-22T20:40:38.374Z,4.37
2018-08-22T20:43:09.456Z,4.08
2018-08-22T20:45:39.154Z,4.20
2018-08-22T20:48:09.999Z,4.62
2018-08-22T20:50:40.132Z,4.78
2018-08-22T20:53:10.732Z,4.40
2018-08-22T20:55:39.506Z,5.60
2018-08-22T20:58:11.024Z,4.47
2018-08-22T21:00:39.758Z,4.90
2018-08-22T21:03:08.340Z,5.00
2018-08-22T21:05:36.856Z,5.00
2018-08-22T21:08:05.507Z,4.33
2018-08-22T21:10:34.036Z,4.40
2018-08-22T21:13:02.654Z,5.25
2018-08-22T21:15:31.343Z,4.45
2018-08-22T21:17:59.927Z,4.90
2018-08-22T21:20:28.506Z,5.05
2018-08-22T21:22:58.029Z,5.10
2018-08-22T21:25:26.668Z,5.22
2018-08-22T21:27:55.386Z,5.28
2018-08-22T21:30:24.250Z,5.00
2018-08-22T21:32:53.426Z,5.65
2018-08-22T21:35:25.110Z,4.75
2018-08-22T21:37:56.081Z,4.70
2018-08-22T21:40:24.934Z,4.60
2018-08-22T21:42:53.687Z,4.47
2018-08-22T21:45:22.648Z,5.03
2018-08-22T21:48:03.819Z,5.17
2018-08-22T21:50:32.623Z,5.17
2018-08-22T21:53:02.870Z,5.35
2018-08-22T21:55:38.132Z,5.10
2018-08-22T21:58:07.837Z,5.42
2018-08-22T22:00:36.557Z,6.65
2018-08-22T22:03:05.465Z,5.40
2018-08-22T22:05:42.807Z,5.80
2018-08-22T22:08:11.372Z,6.00
2018-08-22T22:10:40.440Z,5.47
2018-08-22T22:13:10.635Z,5.07
2018-08-22T22:15:44.421Z,5.25
2018-08-22T22:18:13.024Z,5.42
2018-08-22T22:20:41.708Z,5.50
2018-08-22T22:23:10.552Z,5.50
2018-08-22T22:25:39.280Z,5.90
2018-08-22T22:28:07.942Z,5.50
2018-08-22T22:30:36.521Z,5.60
2018-08-22T22:33:05.067Z,5.92
2018-08-22T22:35:38.634Z,5.80
2018-08-22T22:38:08.790Z,5.58
2018-08-22T22:40:37.618Z,5.53
2018-08-22T22:43:11.486Z,5.47
2018-08-22T22:45:40.307Z,5.47
2018-08-22T22:48:09.079Z,5.20
2018-08-22T22:50:37.579Z,5.00
2018-08-22T22:53:06.507Z,5.07
2018-08-22T22:55:35.038Z,5.67
2018-08-22T22:58:03.992Z,5.40
2018-08-22T23:00:32.657Z,6.50
2018-08-22T23:03:06.188Z,5.97
2018-08-22T23:05:34.739Z,5.75
2018-08-22T23:08:03.523Z,5.57
2018-08-22T23:10:32.298Z,5.50
2018-08-22T23:13:00.928Z,5.80
2018-08-22T23:15:30.536Z,4.93
2018-08-22T23:18:01.376Z,5.80
2018-08-22T23:20:33.538Z,5.53
2018-08-22T23:23:02.111Z,5.93
2018-08-22T23:25:31.086Z,6.00
2018-08-22T23:27:59.619Z,5.93
2018-08-22T23:30:34.726Z,5.78
2018-08-22T23:33:04.349Z,6.20
2018-08-22T23:35:34.150Z,6.03
2018-08-22T23:38:03.931Z,5.30
2018-08-22T23:40:33.787Z,5.77
2018-08-22T23:43:02.384Z,5.63
2018-08-22T23:45:31.153Z,5.97
2018-08-22T23:47:59.719Z,5.57
2018-08-22T23:51:10.501Z,5.67
2018-08-22T23:53:44.785Z,5.87
2018-08-22T23:56:16.675Z,5.70
2018-08-22T23:58:46.179Z,5.93
